sensor_id;sensor_type;location;lat;lon;timestamp;temperature;humidity
3758;DHT22;1894;51.038;13.692;2022-12-05T00:04:07;7.90;99.90
3758;DHT22;1894;51.038;13.692;2022-12-05T00:06:37;7.90;99.90
3758;DHT22;1894;51.038;13.692;2022-12-05T00:09:08;7.90;99.90
3758;DHT22;1894;51.038;13.692;2022-12-05T00:11:39;7.90;99.90
3758;DHT22;1894;51.038;13.692;2022-12-05T00:14:09;7.90;99.90
3758;DHT22;1894;51.038;13.692;2022-12-05T00:16:38;7.90;99.90
3758;DHT22;1894;51.038;13.692;2022-12-05T00:19:07;7.90;99.90
3758;DHT22;1894;51.038;13.692;2022-12-05T00:21:36;7.80;99.90
3758;DHT22;1894;51.038;13.692;2022-12-05T00:24:06;7.90;99.90
3758;DHT22;1894;51.038;13.692;2022-12-05T00:26:34;7.90;99.90
3758;DHT22;1894;51.038;13.692;2022-12-05T00:29:03;8.00;99.90
3758;DHT22;1894;51.038;13.692;2022-12-05T00:31:30;7.80;99.90
3758;DHT22;1894;51.038;13.692;2022-12-05T00:34:00;7.70;99.90
3758;DHT22;1894;51.038;13.692;2022-12-05T00:36:31;7.60;99.90
3758;DHT22;1894;51.038;13.692;2022-12-05T00:39:02;7.80;99.90
3758;DHT22;1894;51.038;13.692;2022-12-05T00:41:32;7.90;99.90
3758;DHT22;1894;51.038;13.692;2022-12-05T00:44:00;7.90;99.90
3758;DHT22;1894;51.038;13.692;2022-12-05T00:46:29;7.80;99.90
3758;DHT22;1894;51.038;13.692;2022-12-05T00:48:59;7.80;99.90
3758;DHT22;1894;51.038;13.692;2022-12-05T00:51:45;7.80;99.90
3758;DHT22;1894;51.038;13.692;2022-12-05T00:54:14;7.90;99.90
3758;DHT22;1894;51.038;13.692;2022-12-05T00:56:42;7.80;99.90
3758;DHT22;1894;51.038;13.692;2022-12-05T00:59:17;7.80;99.90
3758;DHT22;1894;51.038;13.692;2022-12-05T01:01:47;7.80;99.90
3758;DHT22;1894;51.038;13.692;2022-12-05T01:04:18;7.90;99.90
3758;DHT22;1894;51.038;13.692;2022-12-05T01:06:47;7.80;99.90
3758;DHT22;1894;51.038;13.692;2022-12-05T01:09:18;7.90;99.90
3758;DHT22;1894;51.038;13.692;2022-12-05T01:11:47;7.70;99.90
3758;DHT22;1894;51.038;13.692;2022-12-05T01:14:16;7.90;99.90
3758;DHT22;1894;51.038;13.692;2022-12-05T01:16:46;7.80;99.90
3758;DHT22;1894;51.038;13.692;2022-12-05T01:19:23;7.90;99.90
3758;DHT22;1894;51.038;13.692;2022-12-05T01:21:52;7.80;99.90
3758;DHT22;1894;51.038;13.692;2022-12-05T01:24:21;7.80;99.90
3758;DHT22;1894;51.038;13.692;2022-12-05T01:26:49;7.70;99.90
3758;DHT22;1894;51.038;13.692;2022-12-05T01:29:18;7.70;99.90
3758;DHT22;1894;51.038;13.692;2022-12-05T01:31:47;7.80;99.90
3758;DHT22;1894;51.038;13.692;2022-12-05T01:34:16;7.80;99.90
3758;DHT22;1894;51.038;13.692;2022-12-05T01:36:44;7.80;99.90
3758;DHT22;1894;51.038;13.692;2022-12-05T01:39:12;7.90;99.90
3758;DHT22;1894;51.038;13.692;2022-12-05T01:41:45;7.90;99.90
3758;DHT22;1894;51.038;13.692;2022-12-05T01:46:46;7.90;99.90
3758;DHT22;1894;51.038;13.692;2022-12-05T01:49:18;7.90;99.90
3758;DHT22;1894;51.038;13.692;2022-12-05T01:51:56;7.90;99.90
3758;DHT22;1894;51.038;13.692;2022-12-05T01:54:26;7.90;99.90
3758;DHT22;1894;51.038;13.692;2022-12-05T01:56:57;8.00;99.90
3758;DHT22;1894;51.038;13.692;2022-12-05T01:59:31;8.00;99.90
3758;DHT22;1894;51.038;13.692;2022-12-05T02:02:00;7.90;99.90
3758;DHT22;1894;51.038;13.692;2022-12-05T02:04:29;7.80;99.90
3758;DHT22;1894;51.038;13.692;2022-12-05T02:06:57;7.90;99.90
3758;DHT22;1894;51.038;13.692;2022-12-05T02:09:24;7.90;99.90
3758;DHT22;1894;51.038;13.692;2022-12-05T02:12:11;8.00;99.90
3758;DHT22;1894;51.038;13.692;2022-12-05T02:14:47;7.90;99.90
3758;DHT22;1894;51.038;13.692;2022-12-05T02:38:27;7.90;99.90
3758;DHT22;1894;51.038;13.692;2022-12-05T02:44:06;7.90;99.90
3758;DHT22;1894;51.038;13.692;2022-12-05T02:46:37;7.90;99.90
3758;DHT22;1894;51.038;13.692;2022-12-05T02:49:11;8.00;99.90
3758;DHT22;1894;51.038;13.692;2022-12-05T02:51:46;8.00;99.90
3758;DHT22;1894;51.038;13.692;2022-12-05T02:54:20;8.00;99.90
3758;DHT22;1894;51.038;13.692;2022-12-05T02:56:51;8.00;99.90
3758;DHT22;1894;51.038;13.692;2022-12-05T02:59:20;8.00;99.90
3758;DHT22;1894;51.038;13.692;2022-12-05T03:01:50;8.00;99.90
3758;DHT22;1894;51.038;13.692;2022-12-05T03:04:20;8.00;99.90
3758;DHT22;1894;51.038;13.692;2022-12-05T03:06:58;7.90;99.90
3758;DHT22;1894;51.038;13.692;2022-12-05T03:15:02;7.90;99.90
3758;DHT22;1894;51.038;13.692;2022-12-05T03:17:42;7.90;99.90
3758;DHT22;1894;51.038;13.692;2022-12-05T03:20:23;7.80;99.90
3758;DHT22;1894;51.038;13.692;2022-12-05T03:25:38;7.90;99.90
3758;DHT22;1894;51.038;13.692;2022-12-05T03:28:23;7.80;99.90
3758;DHT22;1894;51.038;13.692;2022-12-05T03:30:56;7.90;99.90
3758;DHT22;1894;51.038;13.692;2022-12-05T03:33:29;8.00;99.90
3758;DHT22;1894;51.038;13.692;2022-12-05T03:36:18;7.90;99.90
3758;DHT22;1894;51.038;13.692;2022-12-05T03:38:55;7.80;99.90
3758;DHT22;1894;51.038;13.692;2022-12-05T03:41:44;7.80;99.90
3758;DHT22;1894;51.038;13.692;2022-12-05T03:47:36;7.60;99.90
3758;DHT22;1894;51.038;13.692;2022-12-05T03:50:24;7.80;99.90
3758;DHT22;1894;51.038;13.692;2022-12-05T03:53:32;7.70;99.90
3758;DHT22;1894;51.038;13.692;2022-12-05T03:56:08;7.90;99.90
3758;DHT22;1894;51.038;13.692;2022-12-05T03:58:47;7.90;99.90
3758;DHT22;1894;51.038;13.692;2022-12-05T04:01:40;7.90;99.90
3758;DHT22;1894;51.038;13.692;2022-12-05T04:04:39;8.00;99.90
3758;DHT22;1894;51.038;13.692;2022-12-05T04:07:13;7.80;99.90
3758;DHT22;1894;51.038;13.692;2022-12-05T04:09:51;7.70;99.90
3758;DHT22;1894;51.038;13.692;2022-12-05T04:12:26;7.80;99.90
3758;DHT22;1894;51.038;13.692;2022-12-05T04:15:18;7.80;99.90
3758;DHT22;1894;51.038;13.692;2022-12-05T04:17:59;7.90;99.90
3758;DHT22;1894;51.038;13.692;2022-12-05T04:20:36;7.80;99.90
3758;DHT22;1894;51.038;13.692;2022-12-05T04:23:24;7.80;99.90
3758;DHT22;1894;51.038;13.692;2022-12-05T04:28:55;7.90;99.90
3758;DHT22;1894;51.038;13.692;2022-12-05T04:31:32;7.90;99.90
3758;DHT22;1894;51.038;13.692;2022-12-05T04:34:07;7.90;99.90
3758;DHT22;1894;51.038;13.692;2022-12-05T04:36:44;7.90;99.90
3758;DHT22;1894;51.038;13.692;2022-12-05T04:39:18;7.80;99.90
3758;DHT22;1894;51.038;13.692;2022-12-05T04:44:26;7.80;99.90
3758;DHT22;1894;51.038;13.692;2022-12-05T04:46:57;7.80;99.90
3758;DHT22;1894;51.038;13.692;2022-12-05T04:49:28;7.80;99.90
3758;DHT22;1894;51.038;13.692;2022-12-05T04:52:01;7.80;99.90
3758;DHT22;1894;51.038;13.692;2022-12-05T04:57:27;7.90;99.90
3758;DHT22;1894;51.038;13.692;2022-12-05T04:59:57;8.00;99.90
3758;DHT22;1894;51.038;13.692;2022-12-05T05:02:33;7.90;99.90
3758;DHT22;1894;51.038;13.692;2022-12-05T05:05:08;8.00;99.90
3758;DHT22;1894;51.038;13.692;2022-12-05T05:07:48;7.90;99.90
3758;DHT22;1894;51.038;13.692;2022-12-05T05:10:33;7.90;99.90
3758;DHT22;1894;51.038;13.692;2022-12-05T05:13:03;7.90;99.90
3758;DHT22;1894;51.038;13.692;2022-12-05T05:15:30;7.90;99.90
3758;DHT22;1894;51.038;13.692;2022-12-05T05:17:57;7.90;99.90
3758;DHT22;1894;51.038;13.692;2022-12-05T05:20:24;7.90;99.90
3758;DHT22;1894;51.038;13.692;2022-12-05T05:22:54;7.90;99.90
3758;DHT22;1894;51.038;13.692;2022-12-05T05:25:23;7.90;99.90
3758;DHT22;1894;51.038;13.692;2022-12-05T05:27:53;7.80;99.90
3758;DHT22;1894;51.038;13.692;2022-12-05T05:30:22;7.90;99.90
3758;DHT22;1894;51.038;13.692;2022-12-05T05:32:50;7.90;99.90
3758;DHT22;1894;51.038;13.692;2022-12-05T05:35:18;7.90;99.90
3758;DHT22;1894;51.038;13.692;2022-12-05T05:37:46;7.90;99.90
3758;DHT22;1894;51.038;13.692;2022-12-05T05:40:13;7.90;99.90
3758;DHT22;1894;51.038;13.692;2022-12-05T05:42:45;8.00;99.90
3758;DHT22;1894;51.038;13.692;2022-12-05T05:45:14;7.90;99.90
3758;DHT22;1894;51.038;13.692;2022-12-05T05:47:42;7.90;99.90
3758;DHT22;1894;51.038;13.692;2022-12-05T05:50:10;7.90;99.90
3758;DHT22;1894;51.038;13.692;2022-12-05T05:52:45;7.90;99.90
3758;DHT22;1894;51.038;13.692;2022-12-05T05:55:12;7.90;99.90
3758;DHT22;1894;51.038;13.692;2022-12-05T05:57:39;7.90;99.90
3758;DHT22;1894;51.038;13.692;2022-12-05T06:00:07;7.90;99.90
3758;DHT22;1894;51.038;13.692;2022-12-05T06:02:35;7.80;99.90
3758;DHT22;1894;51.038;13.692;2022-12-05T06:05:03;7.90;99.90
3758;DHT22;1894;51.038;13.692;2022-12-05T06:07:31;7.90;99.90
3758;DHT22;1894;51.038;13.692;2022-12-05T06:09:58;7.80;99.90
3758;DHT22;1894;51.038;13.692;2022-12-05T06:12:26;7.80;99.90
3758;DHT22;1894;51.038;13.692;2022-12-05T06:14:53;7.70;99.90
3758;DHT22;1894;51.038;13.692;2022-12-05T06:17:20;7.70;99.90
3758;DHT22;1894;51.038;13.692;2022-12-05T06:19:47;7.80;99.90
3758;DHT22;1894;51.038;13.692;2022-12-05T06:22:14;7.90;99.90
3758;DHT22;1894;51.038;13.692;2022-12-05T06:24:41;7.90;99.90
3758;DHT22;1894;51.038;13.692;2022-12-05T06:27:09;7.70;99.90
3758;DHT22;1894;51.038;13.692;2022-12-05T06:29:36;7.80;99.90
3758;DHT22;1894;51.038;13.692;2022-12-05T06:32:03;7.80;99.90
3758;DHT22;1894;51.038;13.692;2022-12-05T06:34:31;7.80;99.90
3758;DHT22;1894;51.038;13.692;2022-12-05T06:36:58;7.80;99.90
3758;DHT22;1894;51.038;13.692;2022-12-05T06:39:26;7.80;99.90
3758;DHT22;1894;51.038;13.692;2022-12-05T06:41:53;7.80;99.90
3758;DHT22;1894;51.038;13.692;2022-12-05T06:44:20;7.70;99.90
3758;DHT22;1894;51.038;13.692;2022-12-05T06:46:47;7.70;99.90
3758;DHT22;1894;51.038;13.692;2022-12-05T06:49:15;7.80;99.90
3758;DHT22;1894;51.038;13.692;2022-12-05T06:51:42;7.80;99.90
3758;DHT22;1894;51.038;13.692;2022-12-05T06:54:11;7.90;99.90
3758;DHT22;1894;51.038;13.692;2022-12-05T06:56:39;7.90;99.90
3758;DHT22;1894;51.038;13.692;2022-12-05T06:59:06;8.00;99.90
3758;DHT22;1894;51.038;13.692;2022-12-05T07:01:33;8.00;99.90
3758;DHT22;1894;51.038;13.692;2022-12-05T07:04:15;8.00;99.90
3758;DHT22;1894;51.038;13.692;2022-12-05T07:06:46;8.00;99.90
3758;DHT22;1894;51.038;13.692;2022-12-05T07:09:22;8.00;99.90
3758;DHT22;1894;51.038;13.692;2022-12-05T07:12:13;7.90;99.90
3758;DHT22;1894;51.038;13.692;2022-12-05T07:14:42;7.90;99.90
3758;DHT22;1894;51.038;13.692;2022-12-05T07:17:16;8.00;99.90
3758;DHT22;1894;51.038;13.692;2022-12-05T07:19:47;8.00;99.90
3758;DHT22;1894;51.038;13.692;2022-12-05T07:22:20;8.00;99.90
3758;DHT22;1894;51.038;13.692;2022-12-05T07:24:50;8.00;99.90
3758;DHT22;1894;51.038;13.692;2022-12-05T07:27:18;8.00;99.90
3758;DHT22;1894;51.038;13.692;2022-12-05T07:29:53;8.00;99.90
3758;DHT22;1894;51.038;13.692;2022-12-05T07:32:20;8.00;99.90
3758;DHT22;1894;51.038;13.692;2022-12-05T07:34:47;8.00;99.90
3758;DHT22;1894;51.038;13.692;2022-12-05T07:37:21;8.00;99.90
3758;DHT22;1894;51.038;13.692;2022-12-05T07:39:48;8.00;99.90
3758;DHT22;1894;51.038;13.692;2022-12-05T07:42:16;8.00;99.90
3758;DHT22;1894;51.038;13.692;2022-12-05T07:44:43;7.80;99.90
3758;DHT22;1894;51.038;13.692;2022-12-05T07:47:10;7.90;99.90
3758;DHT22;1894;51.038;13.692;2022-12-05T07:49:37;8.20;99.90
3758;DHT22;1894;51.038;13.692;2022-12-05T07:52:04;8.20;99.90
3758;DHT22;1894;51.038;13.692;2022-12-05T07:54:32;8.00;99.90
3758;DHT22;1894;51.038;13.692;2022-12-05T07:56:59;7.90;99.90
3758;DHT22;1894;51.038;13.692;2022-12-05T07:59:26;7.90;99.90
3758;DHT22;1894;51.038;13.692;2022-12-05T08:01:53;7.70;99.90
3758;DHT22;1894;51.038;13.692;2022-12-05T08:04:21;7.70;99.90
3758;DHT22;1894;51.038;13.692;2022-12-05T08:06:48;7.60;99.90
3758;DHT22;1894;51.038;13.692;2022-12-05T08:09:15;7.50;99.90
3758;DHT22;1894;51.038;13.692;2022-12-05T08:11:42;7.70;99.90
3758;DHT22;1894;51.038;13.692;2022-12-05T08:14:16;7.70;99.90
3758;DHT22;1894;51.038;13.692;2022-12-05T08:16:43;7.70;99.90
3758;DHT22;1894;51.038;13.692;2022-12-05T08:19:11;7.80;99.90
3758;DHT22;1894;51.038;13.692;2022-12-05T08:21:39;7.80;99.90
3758;DHT22;1894;51.038;13.692;2022-12-05T08:24:06;7.80;99.90
3758;DHT22;1894;51.038;13.692;2022-12-05T08:26:35;7.90;99.90
3758;DHT22;1894;51.038;13.692;2022-12-05T08:29:11;7.90;99.90
3758;DHT22;1894;51.038;13.692;2022-12-05T08:31:45;8.10;99.90
3758;DHT22;1894;51.038;13.692;2022-12-05T08:34:15;8.10;99.90
3758;DHT22;1894;51.038;13.692;2022-12-05T08:36:44;8.10;99.90
3758;DHT22;1894;51.038;13.692;2022-12-05T08:39:17;8.20;99.90
3758;DHT22;1894;51.038;13.692;2022-12-05T08:41:46;8.00;99.90
3758;DHT22;1894;51.038;13.692;2022-12-05T08:44:14;8.10;99.90
3758;DHT22;1894;51.038;13.692;2022-12-05T08:46:45;8.20;99.90
3758;DHT22;1894;51.038;13.692;2022-12-05T08:49:14;8.30;99.90
3758;DHT22;1894;51.038;13.692;2022-12-05T08:51:42;8.40;99.90
3758;DHT22;1894;51.038;13.692;2022-12-05T08:54:09;8.40;99.90
3758;DHT22;1894;51.038;13.692;2022-12-05T08:56:37;8.60;99.90
3758;DHT22;1894;51.038;13.692;2022-12-05T08:59:04;8.70;99.90
3758;DHT22;1894;51.038;13.692;2022-12-05T09:01:34;8.70;99.90
3758;DHT22;1894;51.038;13.692;2022-12-05T09:04:05;8.60;99.90
3758;DHT22;1894;51.038;13.692;2022-12-05T09:06:33;8.50;99.90
3758;DHT22;1894;51.038;13.692;2022-12-05T09:09:06;8.50;99.90
3758;DHT22;1894;51.038;13.692;2022-12-05T09:11:37;8.60;99.90
3758;DHT22;1894;51.038;13.692;2022-12-05T09:14:07;8.60;99.90
3758;DHT22;1894;51.038;13.692;2022-12-05T09:16:35;8.70;99.90
3758;DHT22;1894;51.038;13.692;2022-12-05T09:19:17;8.70;99.90
3758;DHT22;1894;51.038;13.692;2022-12-05T09:21:50;8.50;99.90
3758;DHT22;1894;51.038;13.692;2022-12-05T09:24:18;8.60;99.90
3758;DHT22;1894;51.038;13.692;2022-12-05T09:26:46;8.40;99.90
3758;DHT22;1894;51.038;13.692;2022-12-05T09:29:13;8.40;99.90
3758;DHT22;1894;51.038;13.692;2022-12-05T09:31:45;8.30;99.90
3758;DHT22;1894;51.038;13.692;2022-12-05T09:34:14;8.30;99.90
3758;DHT22;1894;51.038;13.692;2022-12-05T09:36:45;7.90;99.90
3758;DHT22;1894;51.038;13.692;2022-12-05T09:39:27;7.70;99.90
3758;DHT22;1894;51.038;13.692;2022-12-05T09:45:11;7.70;99.90
3758;DHT22;1894;51.038;13.692;2022-12-05T09:47:53;7.60;99.90
3758;DHT22;1894;51.038;13.692;2022-12-05T09:50:27;7.80;99.90
3758;DHT22;1894;51.038;13.692;2022-12-05T09:53:06;7.80;99.90
3758;DHT22;1894;51.038;13.692;2022-12-05T09:55:43;7.80;99.90
3758;DHT22;1894;51.038;13.692;2022-12-05T09:58:48;8.10;99.90
3758;DHT22;1894;51.038;13.692;2022-12-05T10:16:03;8.10;99.90
3758;DHT22;1894;51.038;13.692;2022-12-05T10:19:05;7.90;99.90
3758;DHT22;1894;51.038;13.692;2022-12-05T10:22:01;7.90;99.90
3758;DHT22;1894;51.038;13.692;2022-12-05T10:24:42;7.90;99.90
3758;DHT22;1894;51.038;13.692;2022-12-05T10:27:19;7.90;99.90
3758;DHT22;1894;51.038;13.692;2022-12-05T10:30:22;7.70;99.90
3758;DHT22;1894;51.038;13.692;2022-12-05T10:32:58;7.80;99.90
3758;DHT22;1894;51.038;13.692;2022-12-05T10:35:38;7.90;99.90
3758;DHT22;1894;51.038;13.692;2022-12-05T10:38:23;7.90;99.90
3758;DHT22;1894;51.038;13.692;2022-12-05T10:40:56;7.80;99.90
3758;DHT22;1894;51.038;13.692;2022-12-05T10:43:29;7.90;99.90
3758;DHT22;1894;51.038;13.692;2022-12-05T10:45:58;8.00;99.90
3758;DHT22;1894;51.038;13.692;2022-12-05T10:48:26;8.10;99.90
3758;DHT22;1894;51.038;13.692;2022-12-05T10:50:56;8.20;99.90
3758;DHT22;1894;51.038;13.692;2022-12-05T10:53:28;8.50;99.90
3758;DHT22;1894;51.038;13.692;2022-12-05T10:59:03;8.10;99.90
3758;DHT22;1894;51.038;13.692;2022-12-05T11:01:32;8.00;99.90
3758;DHT22;1894;51.038;13.692;2022-12-05T11:04:09;7.90;99.90
3758;DHT22;1894;51.038;13.692;2022-12-05T11:06:54;8.00;99.90
3758;DHT22;1894;51.038;13.692;2022-12-05T11:09:39;8.20;99.90
3758;DHT22;1894;51.038;13.692;2022-12-05T11:12:24;8.30;99.90
3758;DHT22;1894;51.038;13.692;2022-12-05T11:15:19;8.20;99.90
3758;DHT22;1894;51.038;13.692;2022-12-05T11:17:52;8.30;99.90
3758;DHT22;1894;51.038;13.692;2022-12-05T11:22:50;8.40;99.90
3758;DHT22;1894;51.038;13.692;2022-12-05T11:27:52;7.90;99.90
3758;DHT22;1894;51.038;13.692;2022-12-05T11:30:28;8.00;99.90
3758;DHT22;1894;51.038;13.692;2022-12-05T11:33:16;8.10;99.90
3758;DHT22;1894;51.038;13.692;2022-12-05T11:35:51;8.20;99.90
3758;DHT22;1894;51.038;13.692;2022-12-05T11:38:21;8.30;99.90
3758;DHT22;1894;51.038;13.692;2022-12-05T11:41:09;8.40;99.90
3758;DHT22;1894;51.038;13.692;2022-12-05T11:47:09;8.10;99.90
3758;DHT22;1894;51.038;13.692;2022-12-05T12:05:17;8.20;99.90
3758;DHT22;1894;51.038;13.692;2022-12-05T12:11:16;8.00;99.90
3758;DHT22;1894;51.038;13.692;2022-12-05T12:26:06;8.00;99.90
3758;DHT22;1894;51.038;13.692;2022-12-05T12:34:47;8.00;99.90
3758;DHT22;1894;51.038;13.692;2022-12-05T12:38:15;8.00;99.90
3758;DHT22;1894;51.038;13.692;2022-12-05T12:40:57;8.20;99.90
3758;DHT22;1894;51.038;13.692;2022-12-05T12:44:23;8.00;99.90
3758;DHT22;1894;51.038;13.692;2022-12-05T12:50:23;7.90;99.90
3758;DHT22;1894;51.038;13.692;2022-12-05T12:53:08;8.10;99.90
3758;DHT22;1894;51.038;13.692;2022-12-05T12:56:08;8.10;99.90
3758;DHT22;1894;51.038;13.692;2022-12-05T13:04:59;8.20;99.90
3758;DHT22;1894;51.038;13.692;2022-12-05T13:07:57;8.30;99.90
3758;DHT22;1894;51.038;13.692;2022-12-05T13:10:36;8.40;99.90
3758;DHT22;1894;51.038;13.692;2022-12-05T13:13:07;8.50;99.90
3758;DHT22;1894;51.038;13.692;2022-12-05T13:15:51;8.40;99.90
3758;DHT22;1894;51.038;13.692;2022-12-05T13:18:23;8.40;99.90
3758;DHT22;1894;51.038;13.692;2022-12-05T13:20:56;8.30;99.90
3758;DHT22;1894;51.038;13.692;2022-12-05T13:23:27;8.20;99.90
3758;DHT22;1894;51.038;13.692;2022-12-05T13:25:57;8.30;99.90
3758;DHT22;1894;51.038;13.692;2022-12-05T13:31:00;8.40;99.90
3758;DHT22;1894;51.038;13.692;2022-12-05T13:33:35;8.40;99.90
3758;DHT22;1894;51.038;13.692;2022-12-05T13:39:02;8.50;99.90
3758;DHT22;1894;51.038;13.692;2022-12-05T13:41:56;8.60;99.90
3758;DHT22;1894;51.038;13.692;2022-12-05T13:47:30;8.40;99.90
3758;DHT22;1894;51.038;13.692;2022-12-05T13:50:11;8.30;99.90
3758;DHT22;1894;51.038;13.692;2022-12-05T13:52:57;8.30;99.90
3758;DHT22;1894;51.038;13.692;2022-12-05T13:55:30;8.20;99.90
3758;DHT22;1894;51.038;13.692;2022-12-05T14:00:51;8.10;99.90
3758;DHT22;1894;51.038;13.692;2022-12-05T14:14:58;7.80;99.90
3758;DHT22;1894;51.038;13.692;2022-12-05T14:17:40;8.00;99.90
3758;DHT22;1894;51.038;13.692;2022-12-05T14:26:39;7.80;99.90
3758;DHT22;1894;51.038;13.692;2022-12-05T14:29:16;7.60;99.90
3758;DHT22;1894;51.038;13.692;2022-12-05T14:37:31;7.50;99.90
3758;DHT22;1894;51.038;13.692;2022-12-05T14:40:02;7.60;99.90
3758;DHT22;1894;51.038;13.692;2022-12-05T14:43:05;7.40;99.90
3758;DHT22;1894;51.038;13.692;2022-12-05T14:46:02;7.40;99.90
3758;DHT22;1894;51.038;13.692;2022-12-05T14:48:33;7.40;99.90
3758;DHT22;1894;51.038;13.692;2022-12-05T14:54:11;7.60;99.90
3758;DHT22;1894;51.038;13.692;2022-12-05T14:56:45;7.70;99.90
3758;DHT22;1894;51.038;13.692;2022-12-05T15:00:17;7.70;99.90
3758;DHT22;1894;51.038;13.692;2022-12-05T15:02:23;7.60;99.90
3758;DHT22;1894;51.038;13.692;2022-12-05T15:05:25;7.50;99.90
3758;DHT22;1894;51.038;13.692;2022-12-05T15:07:55;7.40;99.90
3758;DHT22;1894;51.038;13.692;2022-12-05T15:10:28;7.40;99.90
3758;DHT22;1894;51.038;13.692;2022-12-05T15:13:09;7.50;99.90
3758;DHT22;1894;51.038;13.692;2022-12-05T15:18:29;7.70;99.90
3758;DHT22;1894;51.038;13.692;2022-12-05T15:24:16;7.60;99.90
3758;DHT22;1894;51.038;13.692;2022-12-05T15:26:55;7.60;99.90
3758;DHT22;1894;51.038;13.692;2022-12-05T15:29:26;7.50;99.90
3758;DHT22;1894;51.038;13.692;2022-12-05T15:34:59;7.60;99.90
3758;DHT22;1894;51.038;13.692;2022-12-05T15:37:33;7.70;99.90
3758;DHT22;1894;51.038;13.692;2022-12-05T15:40:16;7.70;99.90
3758;DHT22;1894;51.038;13.692;2022-12-05T15:42:50;7.70;99.90
3758;DHT22;1894;51.038;13.692;2022-12-05T15:45:27;7.70;99.90
3758;DHT22;1894;51.038;13.692;2022-12-05T15:48:10;7.60;99.90
3758;DHT22;1894;51.038;13.692;2022-12-05T15:50:43;7.70;99.90
3758;DHT22;1894;51.038;13.692;2022-12-05T15:56:32;7.70;99.90
3758;DHT22;1894;51.038;13.692;2022-12-05T15:59:23;7.60;99.90
3758;DHT22;1894;51.038;13.692;2022-12-05T16:02:00;7.60;99.90
3758;DHT22;1894;51.038;13.692;2022-12-05T16:04:37;7.60;99.90
3758;DHT22;1894;51.038;13.692;2022-12-05T16:07:12;7.60;99.90
3758;DHT22;1894;51.038;13.692;2022-12-05T16:09:42;7.60;99.90
3758;DHT22;1894;51.038;13.692;2022-12-05T16:12:24;7.60;99.90
3758;DHT22;1894;51.038;13.692;2022-12-05T16:15:06;7.60;99.90
3758;DHT22;1894;51.038;13.692;2022-12-05T16:17:52;7.60;99.90
3758;DHT22;1894;51.038;13.692;2022-12-05T16:20:24;7.60;99.90
3758;DHT22;1894;51.038;13.692;2022-12-05T16:22:58;7.70;99.90
3758;DHT22;1894;51.038;13.692;2022-12-05T16:25:33;7.60;99.90
3758;DHT22;1894;51.038;13.692;2022-12-05T16:30:36;7.60;99.90
3758;DHT22;1894;51.038;13.692;2022-12-05T16:33:12;7.60;99.90
3758;DHT22;1894;51.038;13.692;2022-12-05T16:35:44;7.60;99.90
3758;DHT22;1894;51.038;13.692;2022-12-05T16:43:25;7.30;99.90
3758;DHT22;1894;51.038;13.692;2022-12-05T16:48:46;7.40;99.90
3758;DHT22;1894;51.038;13.692;2022-12-05T16:51:23;7.50;99.90
3758;DHT22;1894;51.038;13.692;2022-12-05T16:53:55;7.50;99.90
3758;DHT22;1894;51.038;13.692;2022-12-05T16:56:28;7.50;99.90
3758;DHT22;1894;51.038;13.692;2022-12-05T16:59:03;7.30;99.90
3758;DHT22;1894;51.038;13.692;2022-12-05T17:01:31;7.30;99.90
3758;DHT22;1894;51.038;13.692;2022-12-05T17:04:07;7.40;99.90
3758;DHT22;1894;51.038;13.692;2022-12-05T17:06:36;7.50;99.90
3758;DHT22;1894;51.038;13.692;2022-12-05T17:09:04;7.50;99.90
3758;DHT22;1894;51.038;13.692;2022-12-05T17:11:34;7.40;99.90
3758;DHT22;1894;51.038;13.692;2022-12-05T17:14:03;7.40;99.90
3758;DHT22;1894;51.038;13.692;2022-12-05T17:16:30;7.40;99.90
3758;DHT22;1894;51.038;13.692;2022-12-05T17:18:57;7.40;99.90
3758;DHT22;1894;51.038;13.692;2022-12-05T17:21:28;7.40;99.90
3758;DHT22;1894;51.038;13.692;2022-12-05T17:23:57;7.50;99.90
3758;DHT22;1894;51.038;13.692;2022-12-05T17:26:24;7.40;99.90
3758;DHT22;1894;51.038;13.692;2022-12-05T17:28:53;7.50;99.90
3758;DHT22;1894;51.038;13.692;2022-12-05T17:31:23;7.40;99.90
3758;DHT22;1894;51.038;13.692;2022-12-05T17:33:52;7.40;99.90
3758;DHT22;1894;51.038;13.692;2022-12-05T17:36:20;7.30;99.90
3758;DHT22;1894;51.038;13.692;2022-12-05T17:38:48;7.30;99.90
3758;DHT22;1894;51.038;13.692;2022-12-05T17:41:20;7.20;99.90
3758;DHT22;1894;51.038;13.692;2022-12-05T17:43:49;7.20;99.90
3758;DHT22;1894;51.038;13.692;2022-12-05T17:46:21;7.00;99.90
3758;DHT22;1894;51.038;13.692;2022-12-05T17:48:50;7.00;99.90
3758;DHT22;1894;51.038;13.692;2022-12-05T17:51:18;6.90;99.90
3758;DHT22;1894;51.038;13.692;2022-12-05T17:53:46;6.90;99.90
3758;DHT22;1894;51.038;13.692;2022-12-05T17:56:14;6.90;99.90
3758;DHT22;1894;51.038;13.692;2022-12-05T17:58:41;6.90;99.90
3758;DHT22;1894;51.038;13.692;2022-12-05T18:01:13;6.80;99.90
3758;DHT22;1894;51.038;13.692;2022-12-05T18:03:46;6.80;99.90
3758;DHT22;1894;51.038;13.692;2022-12-05T18:06:15;6.80;99.90
3758;DHT22;1894;51.038;13.692;2022-12-05T18:08:43;6.80;99.90
3758;DHT22;1894;51.038;13.692;2022-12-05T18:11:12;6.90;99.90
3758;DHT22;1894;51.038;13.692;2022-12-05T18:13:40;6.90;99.90
3758;DHT22;1894;51.038;13.692;2022-12-05T18:16:08;6.90;99.90
3758;DHT22;1894;51.038;13.692;2022-12-05T18:18:35;7.00;99.90
3758;DHT22;1894;51.038;13.692;2022-12-05T18:21:11;6.90;99.90
3758;DHT22;1894;51.038;13.692;2022-12-05T18:23:39;7.00;99.90
3758;DHT22;1894;51.038;13.692;2022-12-05T18:26:08;7.00;99.90
3758;DHT22;1894;51.038;13.692;2022-12-05T18:28:36;6.90;99.90
3758;DHT22;1894;51.038;13.692;2022-12-05T18:31:13;6.90;99.90
3758;DHT22;1894;51.038;13.692;2022-12-05T18:33:43;6.80;99.90
3758;DHT22;1894;51.038;13.692;2022-12-05T18:36:12;6.70;99.90
3758;DHT22;1894;51.038;13.692;2022-12-05T18:38:42;6.80;99.90
3758;DHT22;1894;51.038;13.692;2022-12-05T18:41:09;6.80;99.90
3758;DHT22;1894;51.038;13.692;2022-12-05T18:43:36;6.80;99.90
3758;DHT22;1894;51.038;13.692;2022-12-05T18:46:06;6.80;99.90
3758;DHT22;1894;51.038;13.692;2022-12-05T18:48:34;6.90;99.90
3758;DHT22;1894;51.038;13.692;2022-12-05T18:51:16;6.90;99.90
3758;DHT22;1894;51.038;13.692;2022-12-05T18:53:52;6.90;99.90
3758;DHT22;1894;51.038;13.692;2022-12-05T18:56:28;6.90;99.90
3758;DHT22;1894;51.038;13.692;2022-12-05T18:59:02;7.00;99.90
3758;DHT22;1894;51.038;13.692;2022-12-05T19:01:34;7.00;99.90
3758;DHT22;1894;51.038;13.692;2022-12-05T19:04:04;6.90;99.90
3758;DHT22;1894;51.038;13.692;2022-12-05T19:06:33;6.90;99.90
3758;DHT22;1894;51.038;13.692;2022-12-05T19:09:08;6.90;99.90
3758;DHT22;1894;51.038;13.692;2022-12-05T19:11:42;6.90;99.90
3758;DHT22;1894;51.038;13.692;2022-12-05T19:14:15;6.60;99.90
3758;DHT22;1894;51.038;13.692;2022-12-05T19:16:47;6.50;99.90
3758;DHT22;1894;51.038;13.692;2022-12-05T19:19:24;6.60;99.90
3758;DHT22;1894;51.038;13.692;2022-12-05T19:21:51;6.70;99.90
3758;DHT22;1894;51.038;13.692;2022-12-05T19:24:19;6.70;99.90
3758;DHT22;1894;51.038;13.692;2022-12-05T19:26:46;6.70;99.90
3758;DHT22;1894;51.038;13.692;2022-12-05T19:29:14;6.70;99.90
3758;DHT22;1894;51.038;13.692;2022-12-05T19:31:43;6.60;99.90
3758;DHT22;1894;51.038;13.692;2022-12-05T19:34:11;6.50;99.90
3758;DHT22;1894;51.038;13.692;2022-12-05T19:36:41;6.50;99.90
3758;DHT22;1894;51.038;13.692;2022-12-05T19:39:16;6.60;99.90
3758;DHT22;1894;51.038;13.692;2022-12-05T19:41:45;6.70;99.90
3758;DHT22;1894;51.038;13.692;2022-12-05T19:44:12;6.60;99.90
3758;DHT22;1894;51.038;13.692;2022-12-05T19:46:40;6.60;99.90
3758;DHT22;1894;51.038;13.692;2022-12-05T19:49:14;6.70;99.90